Hovedside
METAR-TAF:

METAR-TAF

Lufthavner :

Léon M'ba internasjonale lufthavn

Libreville, Gabon

breddegrad: 00-27N, lengdegrad: 009-25E, høyde over havet: 12 m

Gjeldene værobservasjon

Denne rapporten ble laget for 19 minutter siden, klokken 15:00 UTC
Vind 7 kt fra Vest, skiftende mellom Vest-sørvest og Nordvest
Temperatur 31°C
Luftfuktighet 75%
Trykk 1008 hPa
Sikt 10 km eller mer
Få skyer i en høyde av 1400 ft

METAR: FOOL 231500Z 28007KT 250V310 9999 FEW014 31/26 Q1008 NOSIG

Tid: 16:19 (15:19 UTC)

Varsel

Denne rapporten ble laget for 4 timer og 19 minutter siden, klokken 11:00 UTC
Varsel gyldig fra 23. klokken 12 UTC til 24. klokken 18 UTC
Vind 7 kt fra Sør-sørvest
Sikt 10 km eller mer
Spredte skyer i en høyde av 1200 ft
Få skyer i en høyde av 2000 ft, Bygeskyer.
Brutte skyer i en høyde av 3300 ft
Sannsynlighet 30% :
Midlertidig
fra 24. klokken 04 UTC til 24. klokken 07 UTC
Sikt: 4000 m
dis

TAF: FOOL 231100Z 2312/2418 21007KT 9999 SCT012 FEW020CB BKN033 PROB30 TEMPO 2404/2407 4000 BR

Værobservasjoner og værvarsel for over 4000 flyplasser (METAR- og TAF-rapporter).

Tilgjengelige stasjoner er representert av de røde og gule prikkene på kartet.

Hold musepekeren over prikken for å se navnet på stasjonen.

Klikk så for å se værobservasjoner og -varsler.

For å forandre kartet kan du klikke på den grønne knappen med svart kryss for å zoome inn, på den grønne knappen med strek for å zoome ut, eller på de grønne pilene for å se tilstøtende kart.


METAR-TAF: